Decoded Metar for YWHA (WHYALLA AIRPORT in _UNIDENTIFIED) (IATA:WYA) | Meteo·Mobile Aviation Weather
aviador You're here:

YWHA Decoded Metar

WHYALLA AIRPORT in _UNIDENTIFIED
Report Time2018-10-18 08:00:00
UTC Time2018-10-18 09:06:11
Flight Rules vfr VFR
Wind090° at 08 kt
W.Decomp.*RWY 05: 6.7 kt HW 4.4 kt RCW
RWY 17: 0.4 kt HW 8 kt LCW
W.Rank090° ranks 29
Current wind is above 090° avg. (7.8)
Visibility9999 m
Phenomena:N/A
Clouds:N/A
Expected CloudBase > 6,000 ft AGL from Temp-Dew spread
CeilingNone
Temp23°C (ISA +8)
Dew Point08°C (38% RH)
AAT19.6°C
QNH1011 hPa
Density Alt1,198 ft
Elevation43 ft
Report Wrong Elevation
Raw Report
YWHA 180800Z AUTO 09008KT 9999 // NCD 23/08 Q1011=

Extra information for YWHA:More info

Metar Taf Metar & Taf Last 4 Metars F.Rules Stats Wind Profile Meteogram Temp Stats Airport Information Weather charts Add Link Nearby VenuesMetar ALERT Operation Metar Decoded Social comments